createdAt,value
2023-02-07T00:00:30.925Z,12.80
2023-02-07T00:01:30.911Z,12.80
2023-02-07T00:02:30.915Z,12.90
2023-02-07T00:03:38.723Z,12.80
2023-02-07T00:04:30.886Z,13.00
2023-02-07T00:05:30.875Z,12.80
2023-02-07T00:06:30.899Z,12.80
2023-02-07T00:07:30.864Z,12.70
2023-02-07T00:08:30.849Z,12.70
2023-02-07T00:09:30.837Z,12.60
2023-02-07T00:10:30.826Z,12.60
2023-02-07T00:11:30.826Z,12.70
2023-02-07T00:12:30.821Z,12.80
2023-02-07T00:13:30.796Z,12.80
2023-02-07T00:14:30.778Z,12.60
2023-02-07T00:15:30.797Z,12.60
2023-02-07T00:16:32.094Z,12.60
2023-02-07T00:17:30.770Z,12.60
2023-02-07T00:18:30.740Z,12.50
2023-02-07T00:19:38.743Z,12.40
2023-02-07T00:20:30.711Z,12.50
2023-02-07T00:21:30.709Z,12.70
2023-02-07T00:22:30.708Z,12.70
2023-02-07T00:23:30.686Z,12.80
2023-02-07T00:24:30.672Z,12.80
2023-02-07T00:25:30.668Z,12.60
2023-02-07T00:26:30.660Z,12.60
2023-02-07T00:27:30.719Z,12.70
2023-02-07T00:28:30.787Z,12.60
2023-02-07T00:29:30.628Z,12.70
2023-02-07T00:30:30.777Z,12.70
2023-02-07T00:31:30.942Z,12.70
2023-02-07T00:32:30.615Z,12.70
2023-02-07T00:33:38.283Z,12.80
2023-02-07T00:34:30.576Z,12.60
2023-02-07T00:35:30.571Z,12.70
2023-02-07T00:36:30.559Z,12.70
2023-02-07T00:37:30.564Z,12.60
2023-02-07T00:38:38.281Z,12.50
2023-02-07T00:39:38.315Z,12.60
2023-02-07T00:40:30.505Z,12.60
2023-02-07T00:41:30.499Z,12.80
2023-02-07T00:42:30.510Z,12.80
2023-02-07T00:43:30.511Z,12.80
2023-02-07T00:44:30.467Z,12.80
2023-02-07T00:45:30.457Z,12.80
2023-02-07T00:46:30.447Z,12.90
2023-02-07T00:47:30.455Z,12.90
2023-02-07T00:48:30.465Z,12.80
2023-02-07T00:49:30.413Z,12.80
2023-02-07T00:50:30.404Z,12.70
2023-02-07T00:51:30.393Z,13.10
2023-02-07T00:52:30.409Z,13.00
2023-02-07T00:53:30.388Z,12.90
2023-02-07T00:54:30.363Z,12.70
2023-02-07T00:55:30.359Z,12.70
2023-02-07T00:56:30.374Z,12.90
2023-02-07T00:57:30.339Z,12.80
2023-02-07T00:58:30.341Z,12.70
2023-02-07T00:59:30.315Z,12.90
2023-02-07T01:00:30.302Z,12.80
2023-02-07T01:01:30.378Z,12.70
2023-02-07T01:02:30.288Z,12.90
2023-02-07T01:03:32.024Z,12.90
2023-02-07T01:04:37.844Z,13.10
2023-02-07T01:05:30.254Z,12.90
2023-02-07T01:06:30.244Z,12.90
2023-02-07T01:07:30.237Z,12.80
2023-02-07T01:08:37.296Z,12.90
2023-02-07T01:09:30.214Z,12.80
2023-02-07T01:10:30.195Z,13.10
2023-02-07T01:11:30.192Z,12.90
2023-02-07T01:12:30.191Z,13.00
2023-02-07T01:13:30.193Z,13.00
2023-02-07T01:14:30.159Z,12.90
2023-02-07T01:15:30.212Z,13.00
2023-02-07T01:16:30.139Z,13.00
2023-02-07T01:17:30.149Z,12.90
2023-02-07T01:18:30.128Z,12.90
2023-02-07T01:19:30.135Z,12.90
2023-02-07T01:20:30.099Z,13.00
2023-02-07T01:21:30.092Z,13.00
2023-02-07T01:22:30.084Z,12.90
2023-02-07T01:23:37.122Z,13.00
2023-02-07T01:24:30.051Z,13.00
2023-02-07T01:25:31.071Z,13.00
2023-02-07T01:26:30.038Z,13.00
2023-02-07T01:27:30.042Z,13.00
2023-02-07T01:28:30.026Z,13.00
2023-02-07T01:29:30.000Z,13.00
2023-02-07T01:30:30.003Z,13.10
2023-02-07T01:31:30.163Z,12.90
2023-02-07T01:32:29.970Z,13.00
2023-02-07T01:33:29.980Z,13.00
2023-02-07T01:34:29.955Z,13.00
2023-02-07T01:35:29.959Z,13.00
2023-02-07T01:36:29.964Z,13.00
2023-02-07T01:37:29.920Z,13.10
2023-02-07T01:38:36.973Z,13.00
2023-02-07T01:39:29.904Z,13.10
2023-02-07T01:40:29.899Z,13.10
2023-02-07T01:41:29.885Z,13.00
2023-02-07T01:42:29.870Z,13.10
2023-02-07T01:43:29.864Z,13.00
2023-02-07T01:44:29.839Z,13.00
2023-02-07T01:45:29.839Z,13.10
2023-02-07T01:46:29.845Z,13.00
2023-02-07T01:47:29.812Z,13.00
2023-02-07T01:48:29.817Z,12.90
2023-02-07T01:49:29.787Z,13.00
2023-02-07T01:50:29.782Z,13.00
2023-02-07T01:51:29.792Z,13.00
2023-02-07T01:52:29.757Z,13.00
2023-02-07T01:53:36.839Z,12.90
2023-02-07T01:54:37.445Z,13.00
2023-02-07T01:55:29.756Z,13.00
2023-02-07T01:56:32.267Z,13.00
2023-02-07T01:57:29.701Z,13.10
2023-02-07T01:58:29.702Z,12.90
2023-02-07T01:59:29.683Z,13.20
2023-02-07T02:00:29.697Z,13.20
2023-02-07T02:01:29.809Z,13.00
2023-02-07T02:02:29.691Z,12.80
2023-02-07T02:03:29.661Z,12.80
2023-02-07T02:04:29.631Z,12.80
2023-02-07T02:05:29.617Z,12.70
2023-02-07T02:06:29.611Z,12.90
2023-02-07T02:07:29.612Z,12.80
2023-02-07T02:08:36.645Z,12.80
2023-02-07T02:09:29.585Z,12.90
2023-02-07T02:10:29.570Z,13.10
2023-02-07T02:11:29.557Z,12.90
2023-02-07T02:12:29.547Z,12.90
2023-02-07T02:13:36.600Z,12.70
2023-02-07T02:14:29.521Z,12.90
2023-02-07T02:15:29.516Z,12.70
2023-02-07T02:16:29.504Z,12.80
2023-02-07T02:17:29.497Z,12.90
2023-02-07T02:18:29.501Z,12.70
2023-02-07T02:19:29.475Z,12.90
2023-02-07T02:20:29.460Z,12.80
2023-02-07T02:21:29.469Z,12.80
2023-02-07T02:22:29.438Z,12.80
2023-02-07T02:23:29.467Z,13.10
2023-02-07T02:24:29.426Z,13.00
2023-02-07T02:25:29.411Z,13.00
2023-02-07T02:26:29.400Z,13.00
2023-02-07T02:27:29.392Z,13.00
2023-02-07T02:28:29.396Z,12.80
2023-02-07T02:29:29.373Z,13.00
2023-02-07T02:30:29.414Z,13.00
2023-02-07T02:31:29.403Z,13.00
2023-02-07T02:33:28.486Z,12.10
2023-02-07T02:34:28.443Z,13.00
2023-02-07T02:35:28.438Z,12.90
2023-02-07T02:36:28.433Z,13.00
2023-02-07T02:37:28.417Z,13.00
2023-02-07T02:38:28.421Z,12.90
2023-02-07T02:39:28.412Z,12.70
2023-02-07T02:40:28.384Z,13.00
2023-02-07T02:41:28.377Z,12.90
2023-02-07T02:42:28.406Z,13.10
2023-02-07T02:43:36.455Z,13.00
2023-02-07T02:44:28.334Z,12.70
2023-02-07T02:45:28.344Z,12.90
2023-02-07T02:46:28.326Z,12.80
2023-02-07T02:47:28.335Z,13.00
2023-02-07T02:48:35.360Z,13.10
2023-02-07T02:49:28.291Z,12.90
2023-02-07T02:50:28.280Z,13.00
2023-02-07T02:51:28.275Z,13.00
2023-02-07T02:52:40.722Z,13.00
2023-02-07T02:53:29.270Z,13.00
2023-02-07T02:54:28.237Z,13.10
2023-02-07T02:55:28.254Z,12.70
2023-02-07T02:56:28.218Z,12.80
2023-02-07T02:57:28.211Z,12.70
2023-02-07T02:58:28.220Z,12.90
2023-02-07T02:59:28.204Z,12.80
2023-02-07T03:00:28.179Z,12.90
2023-02-07T03:01:28.186Z,13.10
2023-02-07T03:02:28.165Z,12.90
2023-02-07T03:03:28.168Z,13.10
2023-02-07T03:04:36.127Z,12.90
2023-02-07T03:05:28.184Z,12.90
2023-02-07T03:06:28.129Z,12.90
2023-02-07T03:07:28.116Z,12.90
2023-02-07T03:08:28.123Z,12.90
2023-02-07T03:09:28.091Z,12.80
2023-02-07T03:10:28.079Z,12.70
2023-02-07T03:11:28.101Z,12.50
2023-02-07T03:12:28.066Z,12.80
2023-02-07T03:13:28.073Z,12.70
2023-02-07T03:14:28.040Z,13.30
2023-02-07T03:15:28.032Z,12.60
2023-02-07T03:16:28.021Z,12.50
2023-02-07T03:17:28.020Z,13.10
2023-02-07T03:18:28.020Z,12.60
2023-02-07T03:19:27.988Z,12.70
2023-02-07T03:20:35.650Z,12.70
2023-02-07T03:21:27.973Z,12.80
2023-02-07T03:22:27.958Z,13.20
2023-02-07T03:23:27.967Z,12.60
2023-02-07T03:24:27.941Z,12.90
2023-02-07T03:25:27.929Z,13.80
2023-02-07T03:26:27.916Z,12.90
2023-02-07T03:27:27.942Z,12.90
2023-02-07T03:28:34.965Z,12.70
2023-02-07T03:29:35.695Z,12.80
2023-02-07T03:30:27.942Z,12.90
2023-02-07T03:31:27.921Z,12.90
2023-02-07T03:32:27.846Z,13.50
2023-02-07T03:33:27.851Z,13.90
2023-02-07T03:34:27.829Z,13.40
2023-02-07T03:35:27.833Z,13.00
2023-02-07T03:36:27.804Z,13.30
2023-02-07T03:37:27.812Z,13.70
2023-02-07T03:38:27.808Z,13.20
2023-02-07T03:39:27.780Z,13.00
2023-02-07T03:40:27.766Z,12.90
2023-02-07T03:41:27.769Z,13.00
2023-02-07T03:42:27.754Z,13.40
2023-02-07T03:43:27.778Z,13.40
2023-02-07T03:44:27.729Z,13.20
2023-02-07T03:45:27.716Z,13.00
2023-02-07T03:46:27.744Z,14.10
2023-02-07T03:47:27.702Z,13.20
2023-02-07T03:48:27.701Z,13.00
2023-02-07T03:49:27.676Z,12.80
2023-02-07T03:50:27.700Z,13.10
2023-02-07T03:51:27.663Z,13.10
2023-02-07T03:52:27.644Z,13.50
2023-02-07T03:53:27.656Z,13.50
2023-02-07T03:54:27.621Z,13.20
2023-02-07T03:55:27.620Z,13.40
2023-02-07T03:56:27.605Z,16.00
2023-02-07T03:57:27.593Z,13.00
2023-02-07T03:58:34.660Z,13.20
2023-02-07T03:59:27.579Z,13.20
2023-02-07T04:00:27.569Z,13.00
2023-02-07T04:01:27.556Z,13.60
2023-02-07T04:02:27.608Z,13.90
2023-02-07T04:03:27.560Z,14.00
2023-02-07T04:04:27.528Z,13.40
2023-02-07T04:05:27.514Z,13.50
2023-02-07T04:06:27.510Z,14.90
2023-02-07T04:07:27.500Z,13.40
2023-02-07T04:08:27.487Z,13.60
2023-02-07T04:09:27.508Z,12.80
2023-02-07T04:10:27.489Z,13.30
2023-02-07T04:11:27.454Z,13.40
2023-02-07T04:12:28.214Z,13.20
2023-02-07T04:13:27.435Z,13.00
2023-02-07T04:14:27.722Z,14.70
2023-02-07T04:15:35.248Z,13.40
2023-02-07T04:16:27.485Z,13.60
2023-02-07T04:17:29.435Z,13.50
2023-02-07T04:18:27.383Z,13.10
2023-02-07T04:19:27.402Z,13.60
2023-02-07T04:20:27.377Z,12.90
2023-02-07T04:21:27.362Z,13.20
2023-02-07T04:22:27.341Z,14.10
2023-02-07T04:23:27.336Z,13.10
2023-02-07T04:24:27.354Z,14.00
2023-02-07T04:25:27.312Z,14.90
2023-02-07T04:26:27.308Z,13.90
2023-02-07T04:27:27.288Z,13.10
2023-02-07T04:28:27.284Z,13.90
2023-02-07T04:29:27.297Z,14.60
2023-02-07T04:30:27.330Z,13.10
2023-02-07T04:31:27.289Z,13.30
2023-02-07T04:32:27.244Z,13.40
2023-02-07T04:33:27.238Z,13.40
2023-02-07T04:34:27.236Z,13.50
2023-02-07T04:35:27.226Z,13.30
2023-02-07T04:36:27.220Z,14.70
2023-02-07T04:37:27.192Z,13.00
2023-02-07T04:38:27.188Z,13.60
2023-02-07T04:39:27.175Z,13.20
2023-02-07T04:40:27.166Z,13.10
2023-02-07T04:41:27.149Z,13.70
2023-02-07T04:42:27.146Z,13.50
2023-02-07T04:43:27.142Z,13.60
2023-02-07T04:44:27.129Z,14.10
2023-02-07T04:45:27.116Z,16.10
2023-02-07T04:46:27.119Z,13.10
2023-02-07T04:47:27.094Z,13.10
2023-02-07T04:48:27.079Z,13.60
2023-02-07T04:49:27.075Z,13.00
2023-02-07T04:50:27.055Z,13.40
2023-02-07T04:51:27.053Z,13.60
2023-02-07T04:52:27.034Z,12.90
2023-02-07T04:53:27.042Z,12.80
2023-02-07T04:54:27.018Z,13.50
2023-02-07T04:55:27.005Z,14.40
2023-02-07T04:56:26.999Z,13.20
2023-02-07T04:57:26.983Z,14.00
2023-02-07T04:58:26.996Z,12.90
2023-02-07T04:59:26.981Z,13.80
2023-02-07T05:00:26.948Z,14.20
2023-02-07T05:01:26.953Z,13.20
2023-02-07T05:02:26.971Z,12.90
2023-02-07T05:03:26.926Z,13.00
2023-02-07T05:04:26.976Z,14.20
2023-02-07T05:05:26.907Z,15.20
2023-02-07T05:06:26.893Z,12.90
2023-02-07T05:07:26.882Z,13.60
2023-02-07T05:08:26.912Z,13.30
2023-02-07T05:09:26.872Z,13.30
2023-02-07T05:10:26.850Z,15.40
2023-02-07T05:11:26.841Z,14.00
2023-02-07T05:12:26.834Z,13.10
2023-02-07T05:13:26.828Z,13.60
2023-02-07T05:14:26.829Z,14.20
2023-02-07T05:15:26.860Z,14.30
2023-02-07T05:16:26.825Z,13.30
2023-02-07T05:17:26.779Z,13.50
2023-02-07T05:18:26.820Z,14.70
2023-02-07T05:19:26.776Z,13.80
2023-02-07T05:20:26.761Z,13.10
2023-02-07T05:21:26.740Z,13.60
2023-02-07T05:22:26.734Z,13.50
2023-02-07T05:23:26.722Z,13.50
2023-02-07T05:24:26.730Z,13.60
2023-02-07T05:25:26.700Z,14.10
2023-02-07T05:26:26.691Z,13.70
2023-02-07T05:27:26.685Z,13.10
2023-02-07T05:28:26.673Z,13.50
2023-02-07T05:29:26.679Z,13.70
2023-02-07T05:30:26.651Z,13.50
2023-02-07T05:31:26.730Z,14.10
2023-02-07T05:32:26.632Z,13.50
2023-02-07T05:33:26.617Z,13.70
2023-02-07T05:34:26.645Z,14.50
2023-02-07T05:35:26.597Z,13.20
2023-02-07T05:36:26.590Z,13.30
2023-02-07T05:37:26.581Z,13.00
2023-02-07T05:38:26.568Z,13.10
2023-02-07T05:39:26.562Z,13.10
2023-02-07T05:40:26.551Z,13.10
2023-02-07T05:41:26.552Z,12.70
2023-02-07T05:42:26.527Z,13.20
2023-02-07T05:43:26.523Z,14.00
2023-02-07T05:44:26.516Z,13.30
2023-02-07T05:45:26.494Z,13.10
2023-02-07T05:46:26.488Z,15.00
2023-02-07T05:47:26.483Z,13.30
2023-02-07T05:48:26.466Z,13.10
2023-02-07T05:49:26.457Z,12.90
2023-02-07T05:50:26.462Z,14.40
2023-02-07T05:51:26.432Z,14.00
2023-02-07T05:52:26.421Z,14.00
2023-02-07T05:53:34.274Z,13.10
2023-02-07T05:54:26.420Z,13.30
2023-02-07T05:55:26.393Z,13.30
2023-02-07T05:56:26.385Z,13.40
2023-02-07T05:57:26.371Z,13.90
2023-02-07T05:58:26.379Z,13.60
2023-02-07T05:59:26.377Z,13.30
2023-02-07T06:00:26.345Z,13.40
2023-02-07T06:01:26.336Z,13.70
2023-02-07T06:02:26.356Z,13.60
2023-02-07T06:03:26.368Z,13.80
2023-02-07T06:04:26.324Z,13.60
2023-02-07T06:05:26.286Z,13.50
2023-02-07T06:06:26.307Z,14.70
2023-02-07T06:07:34.294Z,13.60
2023-02-07T06:08:26.256Z,13.70
2023-02-07T06:09:26.258Z,13.80
2023-02-07T06:10:26.251Z,13.80
2023-02-07T06:11:26.254Z,13.20
2023-02-07T06:12:26.214Z,13.50
2023-02-07T06:13:26.204Z,14.60
2023-02-07T06:14:26.210Z,13.50
2023-02-07T06:15:33.863Z,13.50
2023-02-07T06:16:26.176Z,13.30
2023-02-07T06:17:26.164Z,13.10
2023-02-07T06:18:26.150Z,14.10
2023-02-07T06:19:26.152Z,13.40
2023-02-07T06:20:26.130Z,13.40
2023-02-07T06:21:34.585Z,13.40
2023-02-07T06:22:27.137Z,13.60
2023-02-07T06:23:26.103Z,13.60
2023-02-07T06:24:26.112Z,13.50
2023-02-07T06:25:33.840Z,13.30
2023-02-07T06:26:26.081Z,13.40
2023-02-07T06:27:26.078Z,13.40
2023-02-07T06:28:26.055Z,13.60
2023-02-07T06:29:26.059Z,13.60
2023-02-07T06:30:26.040Z,13.20
2023-02-07T06:31:26.062Z,13.50
2023-02-07T06:32:26.024Z,13.60
2023-02-07T06:33:26.008Z,13.50
2023-02-07T06:34:26.011Z,13.40
2023-02-07T06:35:25.983Z,13.60
2023-02-07T06:36:25.977Z,14.10
2023-02-07T06:37:25.969Z,13.40
2023-02-07T06:38:26.028Z,13.60
2023-02-07T06:39:25.957Z,13.90
2023-02-07T06:40:25.951Z,14.40
2023-02-07T06:41:25.923Z,13.50
2023-02-07T06:42:25.913Z,13.30
2023-02-07T06:43:25.902Z,13.60
2023-02-07T06:44:25.920Z,14.40
2023-02-07T06:45:25.883Z,13.70
2023-02-07T06:46:25.954Z,13.30
2023-02-07T06:47:25.880Z,13.80
2023-02-07T06:48:25.852Z,15.70
2023-02-07T06:49:25.863Z,13.50
2023-02-07T06:50:25.832Z,13.00
2023-02-07T06:51:25.831Z,13.70
2023-02-07T06:52:33.869Z,14.00
2023-02-07T06:53:25.802Z,14.50
2023-02-07T06:54:25.816Z,13.40
2023-02-07T06:55:25.777Z,13.60
2023-02-07T06:56:25.769Z,13.50
2023-02-07T06:57:25.766Z,14.60
2023-02-07T06:58:25.804Z,13.90
2023-02-07T06:59:25.747Z,13.90
2023-02-07T07:00:25.730Z,13.20
2023-02-07T07:01:25.746Z,13.90
2023-02-07T07:02:25.739Z,14.50
2023-02-07T07:03:25.693Z,14.00
2023-02-07T07:04:25.693Z,13.80
2023-02-07T07:05:25.671Z,14.60
2023-02-07T07:06:25.668Z,14.00
2023-02-07T07:07:25.653Z,13.60
2023-02-07T07:08:25.671Z,13.70
2023-02-07T07:09:25.683Z,14.10
2023-02-07T07:10:25.763Z,13.70
2023-02-07T07:11:25.615Z,13.50
2023-02-07T07:12:25.604Z,14.20
2023-02-07T07:13:25.603Z,13.90
2023-02-07T07:14:25.598Z,13.60
2023-02-07T07:15:25.582Z,14.30
2023-02-07T07:16:25.602Z,13.90
2023-02-07T07:17:25.550Z,13.40
2023-02-07T07:18:25.540Z,14.60
2023-02-07T07:19:25.580Z,13.70
2023-02-07T07:20:25.520Z,14.20
2023-02-07T07:21:25.506Z,13.70
2023-02-07T07:22:25.501Z,13.90
2023-02-07T07:23:25.486Z,14.00
2023-02-07T07:24:25.498Z,14.10
2023-02-07T07:25:25.468Z,13.90
2023-02-07T07:26:25.481Z,14.00
2023-02-07T07:27:25.493Z,14.30
2023-02-07T07:28:25.441Z,14.10
2023-02-07T07:29:25.472Z,13.70
2023-02-07T07:30:25.427Z,14.10
2023-02-07T07:31:25.436Z,14.20
2023-02-07T07:32:33.916Z,13.90
2023-02-07T07:33:26.379Z,14.10
2023-02-07T07:34:25.439Z,14.10
2023-02-07T07:35:25.387Z,14.20
2023-02-07T07:36:25.350Z,13.80
2023-02-07T07:37:25.343Z,13.70
2023-02-07T07:38:25.355Z,14.80
2023-02-07T07:39:25.330Z,14.30
2023-02-07T07:40:25.318Z,14.10
2023-02-07T07:41:25.292Z,14.00
2023-02-07T07:42:25.304Z,13.70
2023-02-07T07:43:25.270Z,14.20
2023-02-07T07:44:25.276Z,14.00
2023-02-07T07:45:25.252Z,14.10
2023-02-07T07:46:25.257Z,15.00
2023-02-07T07:47:25.228Z,14.80
2023-02-07T07:48:25.246Z,14.50
2023-02-07T07:49:25.225Z,13.90
2023-02-07T07:50:25.198Z,14.80
2023-02-07T07:51:25.212Z,14.60
2023-02-07T07:52:25.173Z,13.80
2023-02-07T07:53:25.171Z,13.90
2023-02-07T07:54:25.148Z,14.40
2023-02-07T07:55:25.150Z,14.40
2023-02-07T07:56:25.136Z,14.50
2023-02-07T07:57:25.116Z,14.90
2023-02-07T07:58:25.126Z,14.10
2023-02-07T07:59:25.094Z,14.40
2023-02-07T08:00:25.119Z,14.90
2023-02-07T08:01:25.174Z,14.60
2023-02-07T08:02:25.090Z,14.40
2023-02-07T08:03:25.054Z,14.50
2023-02-07T08:04:25.041Z,13.60
2023-02-07T08:05:25.040Z,14.60
2023-02-07T08:06:25.016Z,13.90
2023-02-07T08:07:25.006Z,13.90
2023-02-07T08:08:25.004Z,14.40
2023-02-07T08:09:24.999Z,13.70
2023-02-07T08:10:25.018Z,13.80
2023-02-07T08:11:24.969Z,14.00
2023-02-07T08:12:24.953Z,14.00
2023-02-07T08:13:27.503Z,14.60
2023-02-07T08:14:24.946Z,14.40
2023-02-07T08:15:24.931Z,14.00
2023-02-07T08:16:24.943Z,14.30
2023-02-07T08:17:24.949Z,14.90
2023-02-07T08:18:24.894Z,14.70
2023-02-07T08:19:24.877Z,13.90
2023-02-07T08:20:24.875Z,14.80
2023-02-07T08:21:24.855Z,14.20
2023-02-07T08:22:24.844Z,14.40
2023-02-07T08:23:24.833Z,14.20
2023-02-07T08:24:24.840Z,13.90
2023-02-07T08:25:24.844Z,14.40
2023-02-07T08:26:24.804Z,14.10
2023-02-07T08:27:24.802Z,14.90
2023-02-07T08:28:24.821Z,14.40
2023-02-07T08:29:24.771Z,13.60
2023-02-07T08:30:24.791Z,14.50
2023-02-07T08:31:24.824Z,14.40
2023-02-07T08:32:24.749Z,14.10
2023-02-07T08:33:24.728Z,14.50
2023-02-07T08:34:24.714Z,14.10
2023-02-07T08:35:24.716Z,13.80
2023-02-07T08:36:24.699Z,14.90
2023-02-07T08:37:24.683Z,15.00
2023-02-07T08:38:24.691Z,14.00
2023-02-07T08:39:24.669Z,14.80
2023-02-07T08:40:24.668Z,14.70
2023-02-07T08:41:24.658Z,14.00
2023-02-07T08:42:24.635Z,13.90
2023-02-07T08:43:24.621Z,14.00
2023-02-07T08:44:24.712Z,13.60
2023-02-07T08:45:24.723Z,13.50
2023-02-07T08:46:24.656Z,13.70
2023-02-07T08:47:24.577Z,13.60
2023-02-07T08:48:24.561Z,13.90
2023-02-07T08:49:24.553Z,14.40
2023-02-07T08:50:24.561Z,13.60
2023-02-07T08:51:24.536Z,14.20
2023-02-07T08:52:24.519Z,13.50
2023-02-07T08:53:24.511Z,14.50
2023-02-07T08:54:24.497Z,14.00
2023-02-07T08:55:24.503Z,14.40
2023-02-07T08:56:24.475Z,14.40
2023-02-07T08:57:24.467Z,14.30
2023-02-07T08:58:24.454Z,14.50
2023-02-07T08:59:24.446Z,14.50
2023-02-07T09:00:24.549Z,14.40
2023-02-07T09:01:24.492Z,14.50
2023-02-07T09:02:24.451Z,14.20
2023-02-07T09:03:24.419Z,14.40
2023-02-07T09:04:24.389Z,13.80
2023-02-07T09:05:24.394Z,14.40
2023-02-07T09:06:24.370Z,14.20
2023-02-07T09:07:24.362Z,13.70
2023-02-07T09:08:24.347Z,13.70
2023-02-07T09:09:24.341Z,14.70
2023-02-07T09:10:24.522Z,13.50
2023-02-07T09:11:24.351Z,13.50
2023-02-07T09:12:24.307Z,14.40
2023-02-07T09:13:24.295Z,13.40
2023-02-07T09:14:24.288Z,13.90
2023-02-07T09:15:24.287Z,13.80
2023-02-07T09:16:24.318Z,13.60
2023-02-07T09:17:24.250Z,13.20
2023-02-07T09:18:24.259Z,13.90
2023-02-07T09:19:24.228Z,13.10
2023-02-07T09:20:24.264Z,13.20
2023-02-07T09:21:24.234Z,14.10
2023-02-07T09:22:24.198Z,13.80
2023-02-07T09:23:24.289Z,13.50
2023-02-07T09:24:24.175Z,13.60
2023-02-07T09:25:24.174Z,12.90
2023-02-07T09:26:24.155Z,13.40
2023-02-07T09:27:24.145Z,13.50
2023-02-07T09:28:24.194Z,13.50
2023-02-07T09:29:24.127Z,14.00
2023-02-07T09:30:24.121Z,13.50
2023-02-07T09:31:24.183Z,13.20
2023-02-07T09:32:24.090Z,14.20
2023-02-07T09:33:24.077Z,13.80
2023-02-07T09:34:24.112Z,13.70
2023-02-07T09:35:24.071Z,13.00
2023-02-07T09:36:24.050Z,13.70
2023-02-07T09:37:24.038Z,13.00
2023-02-07T09:38:24.028Z,13.10
2023-02-07T09:39:24.025Z,12.80
2023-02-07T09:40:24.040Z,14.10
2023-02-07T09:41:23.997Z,12.90
2023-02-07T09:42:23.979Z,12.80
2023-02-07T09:43:24.187Z,13.00
2023-02-07T09:44:24.179Z,12.80
2023-02-07T09:45:24.077Z,13.40
2023-02-07T09:46:23.966Z,13.60
2023-02-07T09:47:24.002Z,13.10
2023-02-07T09:48:23.918Z,13.30
2023-02-07T09:49:23.906Z,13.60
2023-02-07T09:50:23.920Z,14.50
2023-02-07T09:51:23.885Z,12.80
2023-02-07T09:52:23.873Z,13.20
2023-02-07T09:53:23.866Z,13.60
2023-02-07T09:54:23.851Z,13.20
2023-02-07T09:55:23.852Z,13.90
2023-02-07T09:56:23.830Z,13.10
2023-02-07T09:57:23.816Z,13.80
2023-02-07T09:58:23.831Z,13.20
2023-02-07T09:59:23.828Z,13.60
2023-02-07T10:00:23.937Z,13.60
2023-02-07T10:01:23.785Z,13.10
2023-02-07T10:02:23.853Z,12.70
2023-02-07T10:03:23.759Z,13.90
2023-02-07T10:04:23.756Z,13.40
2023-02-07T10:05:23.745Z,13.30
2023-02-07T10:06:23.742Z,13.30
2023-02-07T10:07:23.708Z,13.70
2023-02-07T10:08:28.349Z,13.40
2023-02-07T10:09:24.686Z,13.50
2023-02-07T10:10:23.690Z,13.70
2023-02-07T10:11:23.703Z,13.50
2023-02-07T10:12:23.656Z,13.00
2023-02-07T10:13:23.654Z,13.30
2023-02-07T10:14:23.664Z,13.70
2023-02-07T10:15:23.636Z,12.90
2023-02-07T10:16:23.620Z,13.60
2023-02-07T10:17:31.397Z,13.30
2023-02-07T10:18:24.603Z,13.20
2023-02-07T10:19:23.595Z,13.60
2023-02-07T10:20:24.907Z,13.70
2023-02-07T10:21:23.681Z,13.20
2023-02-07T10:22:24.434Z,13.70
2023-02-07T10:23:24.407Z,13.70
2023-02-07T10:24:23.535Z,13.30
2023-02-07T10:25:23.618Z,13.10
2023-02-07T10:26:23.522Z,14.70
2023-02-07T10:27:23.516Z,13.70
2023-02-07T10:28:24.460Z,13.40
2023-02-07T10:29:24.888Z,13.30
2023-02-07T10:30:25.557Z,13.40
2023-02-07T10:31:23.613Z,13.40
2023-02-07T10:32:23.458Z,13.80
2023-02-07T10:33:24.914Z,13.30
2023-02-07T10:34:25.904Z,13.60
2023-02-07T10:35:24.404Z,14.10
2023-02-07T10:36:24.439Z,13.50
2023-02-07T10:38:33.634Z,12.90
2023-02-07T10:39:33.265Z,13.20
2023-02-07T10:40:33.267Z,13.10
2023-02-07T10:41:33.243Z,13.50
2023-02-07T10:42:33.276Z,13.20
2023-02-07T10:43:33.228Z,13.20
2023-02-07T10:44:33.217Z,13.10
2023-02-07T10:45:33.229Z,13.00
2023-02-07T10:46:33.222Z,13.40
2023-02-07T10:47:33.185Z,13.00
2023-02-07T10:48:33.175Z,13.00
2023-02-07T10:49:33.163Z,13.40
2023-02-07T10:50:33.243Z,13.60
2023-02-07T10:51:33.175Z,13.70
2023-02-07T10:52:33.130Z,13.40
2023-02-07T10:53:33.214Z,13.10
2023-02-07T10:54:33.123Z,13.70
2023-02-07T10:55:33.106Z,14.00
2023-02-07T10:56:33.084Z,13.00
2023-02-07T10:57:33.079Z,13.20
2023-02-07T10:58:33.086Z,13.50
2023-02-07T10:59:33.065Z,13.50
2023-02-07T11:00:33.048Z,13.20
2023-02-07T11:01:33.063Z,13.40
2023-02-07T11:02:33.148Z,13.30
2023-02-07T11:03:33.016Z,13.30
2023-02-07T11:04:33.011Z,13.50
2023-02-07T11:05:33.004Z,13.30
2023-02-07T11:06:32.986Z,13.10
2023-02-07T11:07:47.137Z,13.30
2023-02-07T11:08:33.953Z,13.50
2023-02-07T11:09:32.945Z,12.60
2023-02-07T11:10:32.974Z,12.60
2023-02-07T11:11:33.061Z,12.40
2023-02-07T11:12:32.912Z,13.00
2023-02-07T11:13:32.907Z,13.00
2023-02-07T11:14:34.839Z,13.20
2023-02-07T11:15:32.915Z,13.30
2023-02-07T11:16:32.891Z,13.10
2023-02-07T11:17:32.917Z,13.10
2023-02-07T11:18:32.853Z,13.30
2023-02-07T11:19:32.833Z,12.90
2023-02-07T11:20:32.837Z,13.00
2023-02-07T11:21:32.813Z,13.40
2023-02-07T11:22:32.851Z,12.70
2023-02-07T11:23:32.792Z,13.00
2023-02-07T11:24:32.784Z,12.70
2023-02-07T11:25:32.824Z,12.80
2023-02-07T11:26:32.776Z,12.80
2023-02-07T11:27:32.748Z,13.00
2023-02-07T11:28:32.737Z,13.00
2023-02-07T11:29:32.724Z,12.50
2023-02-07T11:30:32.730Z,12.40
2023-02-07T11:31:32.776Z,12.50
2023-02-07T11:32:32.690Z,13.00
2023-02-07T11:33:32.686Z,12.50
2023-02-07T11:34:32.672Z,13.30
2023-02-07T11:35:32.671Z,12.40
2023-02-07T11:36:32.648Z,13.00
2023-02-07T11:37:32.640Z,13.10
2023-02-07T11:38:32.626Z,12.80
2023-02-07T11:39:32.623Z,12.70
2023-02-07T11:40:32.617Z,12.80
2023-02-07T11:41:32.603Z,12.60
2023-02-07T11:42:32.599Z,12.70
2023-02-07T11:43:32.576Z,12.40
2023-02-07T11:44:32.558Z,13.50
2023-02-07T11:45:32.553Z,12.80
2023-02-07T11:46:32.701Z,12.80
2023-02-07T11:47:32.557Z,12.90
2023-02-07T11:48:32.516Z,13.70
2023-02-07T11:49:32.506Z,12.60
2023-02-07T11:50:32.497Z,13.00
2023-02-07T11:51:32.517Z,13.60
2023-02-07T11:52:32.475Z,12.70
2023-02-07T11:53:32.463Z,12.50
2023-02-07T11:54:32.465Z,12.50
2023-02-07T11:55:32.444Z,13.10
2023-02-07T11:56:32.449Z,12.60
2023-02-07T11:57:32.423Z,12.40
2023-02-07T11:58:32.449Z,13.10
2023-02-07T11:59:32.437Z,12.60
2023-02-07T12:00:32.387Z,12.80
2023-02-07T12:01:32.429Z,12.50
2023-02-07T12:02:32.371Z,12.60
2023-02-07T12:03:32.356Z,12.50
2023-02-07T12:04:32.355Z,12.30
2023-02-07T12:05:32.336Z,12.60
2023-02-07T12:06:32.337Z,12.80
2023-02-07T12:07:32.342Z,13.20
2023-02-07T12:08:32.302Z,13.20
2023-02-07T12:09:32.314Z,12.70
2023-02-07T12:10:32.289Z,13.30
2023-02-07T12:11:32.282Z,13.20
2023-02-07T12:12:32.274Z,13.30
2023-02-07T12:13:32.250Z,13.20
2023-02-07T12:14:32.318Z,12.30
2023-02-07T12:15:32.232Z,12.70
2023-02-07T12:16:32.315Z,13.70
2023-02-07T12:17:32.219Z,12.50
2023-02-07T12:18:32.197Z,12.40
2023-02-07T12:19:32.187Z,12.90
2023-02-07T12:20:32.177Z,12.90
2023-02-07T12:21:32.183Z,12.70
2023-02-07T12:22:32.176Z,12.80
2023-02-07T12:23:42.434Z,12.60
2023-02-07T12:24:33.174Z,13.10
2023-02-07T12:25:32.146Z,12.60
2023-02-07T12:26:32.127Z,12.50
2023-02-07T12:27:32.101Z,12.60
2023-02-07T12:28:32.099Z,12.80
2023-02-07T12:29:32.081Z,12.70
2023-02-07T12:30:32.099Z,12.30
2023-02-07T12:31:32.365Z,12.30
2023-02-07T12:32:32.119Z,12.70
2023-02-07T12:33:32.040Z,12.80
2023-02-07T12:34:32.050Z,12.80
2023-02-07T12:35:32.024Z,12.60
2023-02-07T12:36:32.019Z,12.40
2023-02-07T12:37:31.997Z,13.10
2023-02-07T12:38:31.990Z,13.00
2023-02-07T12:39:31.975Z,12.70
2023-02-07T12:40:31.961Z,12.70
2023-02-07T12:41:31.998Z,13.10
2023-02-07T12:42:31.944Z,13.20
2023-02-07T12:43:31.930Z,12.60
2023-02-07T12:44:31.922Z,12.60
2023-02-07T12:45:31.947Z,13.50
2023-02-07T12:46:31.934Z,12.60
2023-02-07T12:47:31.890Z,12.90
2023-02-07T12:48:31.879Z,13.50
2023-02-07T12:49:31.870Z,12.60
2023-02-07T12:50:31.859Z,13.10
2023-02-07T12:51:31.866Z,12.90
2023-02-07T12:52:31.836Z,12.70
2023-02-07T12:53:31.838Z,12.40
2023-02-07T12:54:31.815Z,13.50